createdAt,value
2018-03-25T08:45:48.319Z,42.23
2018-03-25T08:48:15.858Z,45.37
2018-03-25T08:55:38.878Z,46.83
2018-03-25T08:58:06.413Z,42.30
2018-03-25T09:00:33.909Z,46.63
2018-03-25T09:03:01.462Z,45.03
2018-03-25T09:05:28.988Z,40.90
2018-03-25T09:07:56.504Z,44.93
2018-03-25T09:10:23.976Z,41.10
2018-03-25T09:12:52.249Z,41.07
2018-03-25T09:15:20.526Z,43.00
2018-03-25T09:17:48.768Z,40.77
2018-03-25T09:20:16.246Z,44.70
2018-03-25T09:22:43.752Z,46.73
2018-03-25T09:25:11.206Z,39.30
2018-03-25T09:27:38.749Z,40.80
2018-03-25T09:30:07.374Z,41.20
2018-03-25T09:32:34.919Z,41.47
2018-03-25T09:35:02.432Z,41.77
2018-03-25T09:37:30.672Z,44.10
2018-03-25T09:39:58.144Z,37.17
2018-03-25T09:42:25.646Z,38.63
2018-03-25T09:44:53.162Z,39.70
2018-03-25T09:47:21.477Z,40.43
2018-03-25T09:49:49.001Z,35.17
2018-03-25T09:52:17.277Z,38.97
2018-03-25T09:54:45.596Z,37.77
2018-03-25T09:57:13.072Z,37.63
2018-03-25T09:59:40.615Z,39.27
2018-03-25T10:02:12.009Z,36.10
2018-03-25T10:04:39.511Z,36.70
2018-03-25T10:07:06.983Z,36.80
2018-03-25T10:09:34.547Z,34.30
2018-03-25T10:12:02.057Z,35.93
2018-03-25T10:14:29.553Z,33.90
2018-03-25T10:16:57.036Z,37.07
2018-03-25T10:19:24.549Z,36.63
2018-03-25T10:21:52.017Z,38.90
2018-03-25T10:24:19.485Z,37.27
2018-03-25T10:26:46.995Z,36.50
2018-03-25T10:29:15.239Z,39.10
2018-03-25T10:31:42.725Z,38.60
2018-03-25T10:34:10.965Z,34.30
2018-03-25T10:36:38.443Z,33.63
2018-03-25T10:39:05.929Z,37.30
2018-03-25T10:41:33.413Z,33.67
2018-03-25T10:44:00.910Z,40.50
2018-03-25T10:46:28.397Z,35.70
2018-03-25T10:48:56.633Z,41.43
2018-03-25T10:51:24.120Z,39.10
2018-03-25T10:53:52.344Z,37.77
2018-03-25T10:56:19.916Z,38.43
2018-03-25T10:58:47.405Z,39.20
2018-03-25T11:01:15.714Z,36.50
2018-03-25T11:03:43.243Z,38.87
2018-03-25T11:06:11.543Z,36.10
2018-03-25T11:08:39.032Z,37.13
2018-03-25T11:11:06.525Z,37.60
2018-03-25T11:13:33.993Z,36.30
2018-03-25T11:16:02.237Z,38.03
2018-03-25T11:18:29.770Z,34.50
2018-03-25T11:20:57.259Z,36.27
2018-03-25T11:23:24.760Z,34.70
2018-03-25T11:25:52.311Z,33.87
2018-03-25T11:28:19.802Z,35.23
2018-03-25T11:30:47.308Z,33.73
2018-03-25T11:33:15.562Z,33.63
2018-03-25T11:35:43.144Z,34.90
2018-03-25T11:38:11.410Z,36.50
2018-03-25T11:40:38.898Z,30.97
2018-03-25T11:43:06.389Z,32.60
2018-03-25T11:45:33.977Z,31.23
2018-03-25T11:48:01.450Z,36.20
2018-03-25T11:50:29.703Z,35.67
2018-03-25T11:52:57.207Z,35.80
2018-03-25T11:55:24.700Z,31.40
2018-03-25T11:57:52.183Z,36.10
2018-03-25T12:00:19.661Z,30.43
2018-03-25T12:02:47.906Z,32.67
2018-03-25T12:05:15.592Z,32.63
2018-03-25T12:07:43.875Z,32.07
2018-03-25T12:10:12.114Z,35.57
2018-03-25T12:12:39.612Z,29.07
2018-03-25T12:15:07.092Z,25.53
2018-03-25T12:17:34.617Z,28.17
2018-03-25T12:20:02.884Z,27.30
2018-03-25T12:22:31.413Z,25.90
2018-03-25T12:24:58.909Z,22.67
2018-03-25T12:27:26.400Z,21.87
2018-03-25T12:29:53.883Z,15.77
2018-03-25T12:32:21.389Z,15.07
2018-03-25T12:34:48.865Z,20.97
2018-03-25T12:37:16.358Z,55.20
2018-03-25T12:39:43.839Z,44.53
2018-03-25T12:42:11.332Z,19.60
2018-03-25T12:44:39.631Z,14.77
2018-03-25T12:47:07.132Z,21.80
2018-03-25T12:49:34.640Z,23.23
2018-03-25T12:52:02.126Z,26.80
2018-03-25T12:54:29.596Z,23.53
2018-03-25T12:56:57.173Z,24.73
2018-03-25T12:59:24.668Z,28.30
2018-03-25T13:01:52.173Z,28.40
2018-03-25T13:04:19.689Z,27.17
2018-03-25T13:06:47.260Z,26.80
2018-03-25T13:09:14.768Z,25.03
2018-03-25T13:11:43.094Z,24.93
2018-03-25T13:14:10.609Z,21.40
2018-03-25T13:16:39.648Z,23.47
2018-03-25T13:19:07.231Z,21.53
2018-03-25T13:21:34.730Z,21.40
2018-03-25T13:24:03.032Z,23.80
2018-03-25T13:26:30.565Z,19.97
2018-03-25T13:28:58.833Z,21.43
2018-03-25T13:31:27.086Z,21.03
2018-03-25T13:33:54.559Z,20.43
2018-03-25T13:36:22.798Z,21.03
2018-03-25T13:38:50.265Z,20.60
2018-03-25T13:41:17.736Z,22.40
2018-03-25T13:43:45.220Z,20.20
2018-03-25T13:46:13.461Z,21.60
2018-03-25T13:48:40.937Z,25.07
2018-03-25T13:51:09.186Z,23.03
2018-03-25T13:53:36.678Z,20.97
2018-03-25T13:56:04.904Z,24.73
2018-03-25T13:58:32.377Z,24.00
2018-03-25T14:00:59.839Z,22.00
2018-03-25T14:03:27.330Z,21.10
2018-03-25T14:05:55.564Z,21.37
2018-03-25T14:08:23.044Z,22.43
2018-03-25T14:10:50.578Z,20.20
2018-03-25T14:13:18.168Z,19.77
2018-03-25T14:15:46.488Z,21.60
2018-03-25T14:18:13.981Z,23.50
2018-03-25T14:20:41.457Z,22.10
2018-03-25T14:23:08.963Z,25.43
2018-03-25T14:25:36.429Z,25.63
2018-03-25T14:28:03.928Z,24.20
2018-03-25T14:30:32.259Z,22.70
2018-03-25T14:32:59.741Z,25.80
2018-03-25T14:35:27.288Z,26.27
2018-03-25T14:37:54.789Z,29.03
2018-03-25T14:40:23.066Z,28.47
2018-03-25T14:42:51.691Z,26.57
2018-03-25T14:45:19.192Z,28.77
2018-03-25T14:47:47.457Z,29.10
2018-03-25T14:50:14.943Z,26.00
2018-03-25T14:52:43.223Z,24.13
2018-03-25T14:55:11.533Z,25.33
2018-03-25T14:57:39.064Z,27.53
2018-03-25T15:00:06.643Z,25.50
2018-03-25T15:02:34.209Z,26.77
2018-03-25T15:05:01.764Z,23.97
2018-03-25T15:07:29.346Z,25.97
2018-03-25T15:09:56.824Z,25.03
2018-03-25T15:12:24.337Z,24.27
2018-03-25T15:14:51.790Z,25.37
2018-03-25T15:17:19.273Z,25.60
2018-03-25T15:19:46.755Z,27.77
2018-03-25T15:22:14.228Z,26.70
2018-03-25T15:24:42.538Z,23.83
2018-03-25T15:27:10.064Z,24.27
2018-03-25T15:29:38.348Z,22.67
2018-03-25T15:32:05.913Z,22.90
2018-03-25T15:34:34.183Z,22.17
2018-03-25T15:37:02.434Z,23.50
2018-03-25T15:39:30.821Z,24.23
2018-03-25T15:41:59.094Z,25.60
2018-03-25T15:44:27.374Z,24.47
2018-03-25T15:46:55.632Z,24.90
2018-03-25T15:49:23.105Z,25.30
2018-03-25T15:51:50.600Z,24.63
2018-03-25T15:54:18.202Z,23.63
2018-03-25T15:56:45.742Z,22.70
2018-03-25T15:59:13.233Z,22.63
2018-03-25T16:01:40.727Z,22.60
2018-03-25T16:04:08.973Z,24.90
2018-03-25T16:06:36.527Z,25.70
2018-03-25T16:09:04.000Z,24.07
2018-03-25T16:11:32.264Z,33.67
2018-03-25T16:13:59.801Z,23.20
2018-03-25T16:16:27.348Z,25.67
2018-03-25T16:18:54.888Z,26.50
2018-03-25T16:21:22.473Z,24.30
2018-03-25T16:23:50.021Z,27.47
2018-03-25T16:26:17.558Z,28.40
2018-03-25T16:28:45.110Z,23.53
2018-03-25T16:31:13.421Z,25.23
2018-03-25T16:33:40.990Z,25.60
2018-03-25T16:36:08.537Z,26.70
2018-03-25T16:38:37.968Z,29.63
2018-03-25T16:41:05.537Z,31.03
2018-03-25T16:43:33.082Z,30.20
2018-03-25T16:46:00.673Z,33.50
2018-03-25T16:48:29.084Z,54.00
2018-03-25T16:50:56.792Z,51.90
2018-03-25T16:53:24.342Z,45.27
2018-03-25T16:55:51.925Z,31.70
2018-03-25T16:58:19.464Z,32.20
2018-03-25T17:00:47.020Z,45.67
2018-03-25T17:03:14.568Z,52.00
2018-03-25T17:05:42.164Z,35.40
2018-03-25T17:08:09.705Z,33.13
2018-03-25T17:10:37.205Z,36.30
2018-03-25T17:13:05.520Z,31.70
2018-03-25T17:15:33.093Z,29.23
2018-03-25T17:18:00.674Z,27.33
2018-03-25T17:20:28.239Z,34.97
2018-03-25T17:22:56.042Z,31.80
2018-03-25T17:25:23.627Z,31.10
2018-03-25T17:27:51.213Z,31.03
2018-03-25T17:30:18.777Z,27.90
2018-03-25T17:32:46.441Z,28.00
2018-03-25T17:35:13.984Z,30.73
2018-03-25T17:37:41.548Z,28.83
2018-03-25T17:40:09.107Z,26.70
2018-03-25T17:42:36.644Z,29.00
2018-03-25T17:45:04.145Z,29.87
2018-03-25T17:47:31.673Z,32.17
2018-03-25T17:49:59.206Z,30.73
2018-03-25T17:52:26.789Z,34.60
2018-03-25T17:54:54.322Z,33.10
2018-03-25T17:57:21.837Z,29.40
2018-03-25T17:59:49.389Z,31.83
2018-03-25T18:02:16.985Z,31.57
2018-03-25T18:04:44.560Z,30.40
2018-03-25T18:07:12.144Z,37.07
2018-03-25T18:09:39.685Z,36.17
